Time;durP1;ratioP1;P1;durP2;ratioP2;P2;SDS_P1;SDS_P2;PMS_P1;PMS_P2;Temp;Humidity;BMP_temperature;BMP_pressure;BME280_temperature;BME280_humidity;BME280_pressure;Samples;Min_cycle;Max_cycle;Signal;HPM_P1;HPM_P2
2024/04/21 00:01:50;;;;;;;2.70;1.10;;;;;;;1.76;95.72;101470.75;5529262;26;20470;-66
2024/04/21 00:04:16;;;;;;;2.10;0.50;;;;;;;1.81;96.95;101478.94;5492746;26;20235;-66
2024/04/21 00:06:46;;;;;;;2.00;0.30;;;;;;;1.84;98.33;101475.00;5498099;26;20442;-66
2024/04/21 00:09:12;;;;;;;2.10;0.50;;;;;;;1.82;98.53;101477.09;5529894;25;20260;-66
2024/04/21 00:11:41;;;;;;;2.00;0.30;;;;;;;1.85;98.66;101479.31;5529258;25;20954;-66
2024/04/21 00:14:07;;;;;;;2.10;0.40;;;;;;;1.81;99.11;101472.78;5529649;26;20230;-66
2024/04/21 00:16:35;;;;;;;2.00;0.30;;;;;;;1.71;99.50;101482.09;5529648;26;20509;-66
2024/04/21 00:19:01;;;;;;;2.00;0.30;;;;;;;1.72;100.00;101478.41;5529693;25;21027;-66
2024/04/21 00:21:29;;;;;;;2.20;0.60;;;;;;;1.71;99.68;101479.44;5529493;26;20446;-66
2024/04/21 00:23:58;;;;;;;2.10;0.40;;;;;;;1.74;99.75;101476.34;5528508;25;20226;-66
2024/04/21 00:26:26;;;;;;;2.13;0.40;;;;;;;1.69;99.51;101473.50;5529453;26;20450;-66
2024/04/21 00:28:52;;;;;;;2.00;0.40;;;;;;;1.61;99.90;101476.47;5529473;26;20493;-66
2024/04/21 00:31:20;;;;;;;2.00;0.30;;;;;;;1.64;99.19;101478.69;5529325;26;20545;-66
2024/04/21 00:33:46;;;;;;;3.13;1.03;;;;;;;1.62;99.62;101471.94;5528980;25;20230;-66
2024/04/21 00:36:14;;;;;;;2.00;0.30;;;;;;;1.56;99.55;101481.66;5529289;26;20518;-66
2024/04/21 00:38:40;;;;;;;2.00;0.30;;;;;;;1.59;99.19;101483.03;5529327;26;20214;-66
2024/04/21 00:41:11;;;;;;;2.00;0.30;;;;;;;1.65;98.06;101477.66;5528996;26;20447;-65
2024/04/21 00:43:36;;;;;;;2.10;0.50;;;;;;;1.58;96.88;101484.91;5528637;25;20289;-65
2024/04/21 00:46:05;;;;;;;2.00;0.40;;;;;;;1.48;96.22;101489.91;5528991;26;20451;-65
2024/04/21 00:48:32;;;;;;;6.90;2.47;;;;;;;1.39;96.49;101488.56;5529206;26;20218;-65
2024/04/21 00:51:02;;;;;;;2.00;0.30;;;;;;;1.39;95.94;101489.38;5529204;26;20505;-66
2024/04/21 00:53:28;;;;;;;3.80;1.13;;;;;;;1.45;94.64;101495.69;5528973;25;20911;-65
2024/04/21 00:55:59;;;;;;;2.07;0.53;;;;;;;1.49;95.04;101495.03;5528707;26;20603;-67
2024/04/21 00:58:27;;;;;;;2.00;0.30;;;;;;;1.51;95.35;101492.97;5529022;26;20542;-66
2024/04/21 01:00:57;;;;;;;2.23;0.60;;;;;;;1.49;95.43;101494.22;5528260;25;20458;-68
2024/04/21 01:03:23;;;;;;;2.00;0.40;;;;;;;1.38;95.67;101497.63;5528873;25;20459;-66
2024/04/21 01:05:51;;;;;;;2.20;0.57;;;;;;;1.24;95.45;101492.38;5528588;25;21042;-66
2024/04/21 01:08:17;;;;;;;2.00;0.33;;;;;;;1.25;96.04;101493.19;5529496;25;20272;-67
2024/04/21 01:10:45;;;;;;;2.00;0.30;;;;;;;1.19;96.23;101494.84;5528898;25;20447;-67
2024/04/21 01:13:11;;;;;;;2.00;0.40;;;;;;;1.15;97.79;101499.00;5528761;26;20230;-67
2024/04/21 01:15:42;;;;;;;2.20;0.50;;;;;;;1.22;98.82;101497.09;5528576;26;20451;-67
2024/04/21 01:18:08;;;;;;;3.60;0.90;;;;;;;1.20;99.62;101496.50;5528687;25;20511;-67
2024/04/21 01:20:37;;;;;;;2.40;0.97;;;;;;;1.13;98.71;101495.72;5528679;26;20454;-67
2024/04/21 01:23:06;;;;;;;2.00;0.30;;;;;;;1.10;98.30;101501.47;5528523;25;20584;-67
2024/04/21 01:25:34;;;;;;;2.07;0.47;;;;;;;1.16;98.19;101492.63;5528781;26;20582;-67
2024/04/21 01:28:00;;;;;;;2.80;0.87;;;;;;;1.19;98.09;101504.72;5528011;26;20467;-67
2024/04/21 01:30:28;;;;;;;2.00;0.30;;;;;;;1.19;97.15;101497.50;5528593;26;21014;-67
2024/04/21 01:32:54;;;;;;;2.00;0.30;;;;;;;1.25;97.54;101506.53;5528524;25;20756;-67
2024/04/21 01:35:22;;;;;;;2.00;0.30;;;;;;;1.20;97.84;101503.69;5527987;26;20526;-67
2024/04/21 01:37:48;;;;;;;2.00;0.30;;;;;;;1.20;96.71;101504.50;5528478;26;20709;-67
2024/04/21 01:40:20;;;;;;;2.00;0.30;;;;;;;1.14;96.80;101508.03;5528413;26;20510;-67
2024/04/21 01:42:46;;;;;;;2.00;0.30;;;;;;;1.16;97.43;101508.63;5528178;25;20598;-67
2024/04/21 01:45:14;;;;;;;2.00;0.30;;;;;;;1.18;96.66;101503.06;5526960;26;20466;-67
2024/04/21 01:47:40;;;;;;;2.00;0.33;;;;;;;1.18;97.09;101505.75;5528343;26;20466;-67
2024/04/21 01:50:10;;;;;;;2.20;0.73;;;;;;;1.19;96.54;101504.72;5528087;26;20447;-67
2024/04/21 01:52:35;;;;;;;5.03;1.53;;;;;;;1.22;97.34;101504.28;5528174;26;20230;-67
2024/04/21 01:55:04;;;;;;;2.20;0.57;;;;;;;1.29;97.79;101498.91;5527832;26;20600;-67
2024/04/21 01:57:32;;;;;;;2.00;0.43;;;;;;;1.39;97.57;101500.06;5528011;26;20246;-67
2024/04/21 02:00:00;;;;;;;2.00;0.30;;;;;;;1.46;99.03;101510.66;5528089;26;20462;-67
2024/04/21 02:02:26;;;;;;;2.00;0.37;;;;;;;1.49;99.33;101505.72;5527853;26;21050;-67
2024/04/21 02:04:54;;;;;;;2.00;0.30;;;;;;;1.57;99.16;101507.31;5528012;26;20458;-67
2024/04/21 02:07:20;;;;;;;2.00;0.30;;;;;;;1.66;98.30;101516.66;5526928;26;20268;-66
2024/04/21 02:09:48;;;;;;;2.40;1.23;;;;;;;1.71;98.52;101514.16;5528046;26;20455;-66
2024/04/21 02:12:14;;;;;;;2.20;0.70;;;;;;;1.83;98.20;101519.59;5526332;25;20265;-66
2024/04/21 02:14:44;;;;;;;2.10;0.53;;;;;;;1.89;97.43;101520.56;5527971;26;20962;-66
2024/04/21 02:17:10;;;;;;;2.00;0.30;;;;;;;1.88;97.62;101519.75;5526881;26;20556;-66
2024/04/21 02:19:38;;;;;;;2.20;0.70;;;;;;;1.87;97.87;101520.00;5527322;26;20514;-67
2024/04/21 02:22:04;;;;;;;1.97;0.30;;;;;;;1.86;97.63;101518.31;5527780;26;20257;-68
2024/04/21 02:24:42;;;;;;;2.10;0.50;;;;;;;1.76;98.21;101522.31;5527527;25;20459;-67
2024/04/21 02:27:07;;;;;;;2.00;0.37;;;;;;;1.81;98.01;101519.00;5527358;26;20245;-68
2024/04/21 02:29:36;;;;;;;3.03;1.17;;;;;;;1.90;97.55;101519.53;5527743;26;20844;-67
2024/04/21 02:32:04;;;;;;;3.10;1.37;;;;;;;1.86;97.89;101518.31;5527083;26;20272;-67
2024/04/21 02:34:32;;;;;;;2.00;0.30;;;;;;;1.86;96.44;101521.84;5527608;26;20590;-67
2024/04/21 02:36:58;;;;;;;2.00;0.40;;;;;;;1.79;94.16;101521.06;5524905;25;21120;-67
2024/04/21 02:39:26;;;;;;;2.10;0.60;;;;;;;1.72;93.42;101525.66;5527207;26;20471;-67
2024/04/21 02:41:52;;;;;;;2.20;0.97;;;;;;;1.78;92.72;101524.78;5527483;26;20218;-67
2024/04/21 02:44:20;;;;;;;2.30;0.77;;;;;;;1.76;92.37;101527.66;5527289;25;20499;-68
2024/04/21 02:46:46;;;;;;;2.67;1.13;;;;;;;1.82;92.56;101536.66;5484023;20;20497;-68
2024/04/21 02:49:17;;;;;;;4.20;2.70;;;;;;;1.88;92.84;101533.13;5443280;26;20462;-68
2024/04/21 02:51:43;;;;;;;2.00;0.30;;;;;;;1.87;92.61;101530.66;5443991;26;20217;-68
2024/04/21 02:54:11;;;;;;;2.50;0.77;;;;;;;1.82;92.31;101533.19;5443806;26;21038;-68
2024/04/21 02:56:36;;;;;;;1.97;0.30;;;;;;;1.80;92.64;101533.38;5439693;26;20216;-68
2024/04/21 02:59:05;;;;;;;2.40;0.73;;;;;;;1.76;92.12;101535.66;5409790;26;20522;-68
2024/04/21 03:01:31;;;;;;;2.20;0.80;;;;;;;1.85;91.92;101530.06;5443351;26;20332;-67
2024/04/21 03:04:00;;;;;;;2.00;0.30;;;;;;;1.90;91.93;101538.22;5453732;26;20469;-67
2024/04/21 03:06:28;;;;;;;2.20;0.50;;;;;;;1.87;92.25;101530.66;5453859;26;20220;-67
2024/04/21 03:08:56;;;;;;;2.10;0.60;;;;;;;1.75;91.13;101534.03;5453752;26;20965;-67
2024/04/21 03:11:22;;;;;;;2.00;0.40;;;;;;;1.66;89.34;101531.88;5423254;26;20826;-67
2024/04/21 03:13:50;;;;;;;2.40;0.77;;;;;;;1.61;90.56;101539.72;5436506;26;20471;-67
2024/04/21 03:16:16;;;;;;;2.30;1.00;;;;;;;1.58;91.47;101538.28;5407775;26;20256;-67
2024/04/21 03:18:44;;;;;;;2.00;0.40;;;;;;;1.61;92.46;101539.72;5407809;26;20448;-67
2024/04/21 03:21:09;;;;;;;2.00;0.40;;;;;;;1.50;95.31;101541.22;5424373;26;20229;-66
2024/04/21 03:23:40;;;;;;;2.00;0.50;;;;;;;1.46;95.82;101540.88;5407242;26;20475;-66
2024/04/21 03:26:06;;;;;;;4.40;2.50;;;;;;;1.52;94.88;101533.84;5407653;26;20217;-66
2024/04/21 03:28:34;;;;;;;2.33;0.93;;;;;;;1.44;95.71;101542.91;5407605;26;20511;-65
2024/04/21 03:31:00;;;;;;;2.60;1.17;;;;;;;1.40;95.67;101539.03;5409081;26;20232;-66
2024/04/21 03:33:29;;;;;;;1.97;0.30;;;;;;;1.36;95.78;101539.69;5430139;26;20885;-66
2024/04/21 03:36:02;;;;;;;1.90;0.30;;;;;;;1.33;96.50;101537.44;5443250;26;20797;-66
2024/04/21 03:38:30;;;;;;;2.10;0.57;;;;;;;1.18;97.31;101541.25;5443221;26;20517;-66
2024/04/21 03:41:01;;;;;;;2.23;0.80;;;;;;;1.20;96.35;101543.72;5443109;26;20462;-66
2024/04/21 03:43:30;;;;;;;2.00;0.30;;;;;;;1.20;96.46;101544.53;5428090;26;20942;-66
2024/04/21 03:45:58;;;;;;;3.10;1.47;;;;;;;1.06;96.44;101542.94;5407267;26;20475;-66
2024/04/21 03:48:24;;;;;;;2.00;0.40;;;;;;;0.99;97.15;101542.19;5407012;26;20460;-66
2024/04/21 03:50:53;;;;;;;2.00;0.30;;;;;;;0.98;97.88;101545.91;5407141;26;20797;-66
2024/04/21 03:53:21;;;;;;;2.40;1.10;;;;;;;1.00;96.49;101549.16;5408798;26;20835;-65
2024/04/21 03:55:49;;;;;;;2.00;0.30;;;;;;;0.91;96.51;101561.09;5441838;26;20526;-65
2024/04/21 03:58:18;;;;;;;2.00;0.40;;;;;;;0.74;95.27;101555.44;5442771;26;20506;-65
2024/04/21 04:00:47;;;;;;;4.67;1.10;;;;;;;0.81;95.66;101561.56;5442704;26;20454;-65
2024/04/21 04:03:12;;;;;;;6.73;0.67;;;;;;;0.73;96.17;101562.63;5437467;26;20474;-65
2024/04/21 04:05:41;;;;;;;1.90;0.30;;;;;;;0.79;95.88;101568.13;5409239;26;21046;-65
2024/04/21 04:08:06;;;;;;;4.70;1.23;;;;;;;0.75;96.04;101565.06;5406847;26;20455;-65
2024/04/21 04:10:35;;;;;;;2.10;0.50;;;;;;;0.78;96.01;101579.84;5406846;26;20507;-65
2024/04/21 04:13:00;;;;;;;1.97;0.40;;;;;;;0.71;95.77;101578.03;5406699;26;20283;-65
2024/04/21 04:15:31;;;;;;;2.00;0.43;;;;;;;0.59;95.29;101582.38;5423010;26;20475;-65
2024/04/21 04:17:57;;;;;;;2.00;0.40;;;;;;;0.68;95.54;101580.28;5406807;26;20217;-65
2024/04/21 04:20:25;;;;;;;2.57;0.97;;;;;;;0.69;94.66;101585.41;5406699;26;20511;-65
2024/04/21 04:22:51;;;;;;;1.93;0.40;;;;;;;0.60;96.35;101592.00;5406408;26;20581;-65
2024/04/21 04:25:20;;;;;;;1.93;0.40;;;;;;;0.71;96.76;101593.19;5408279;26;20475;-66
2024/04/21 04:27:45;;;;;;;2.77;1.83;;;;;;;0.72;97.82;101586.84;5437703;26;20233;-65
2024/04/21 04:30:14;;;;;;;1.93;0.40;;;;;;;0.73;98.27;101591.94;5442145;26;20505;-65
2024/04/21 04:32:42;;;;;;;1.90;0.30;;;;;;;0.81;97.56;101598.91;5442016;26;20591;-65
2024/04/21 04:35:11;;;;;;;1.90;0.30;;;;;;;0.88;97.49;101601.53;5440159;26;20454;-65
2024/04/21 04:37:37;;;;;;;1.90;0.30;;;;;;;0.84;97.56;101603.81;5427329;26;20511;-65
2024/04/21 04:40:06;;;;;;;1.90;0.30;;;;;;;0.81;97.14;101603.41;5409796;26;20844;-65
2024/04/21 04:42:31;;;;;;;4.63;1.17;;;;;;;0.76;96.91;101606.72;5409904;26;20265;-65
2024/04/21 04:45:00;;;;;;;2.00;0.40;;;;;;;0.85;97.38;101615.31;5409830;26;20459;-65
2024/04/21 04:47:26;;;;;;;2.00;0.40;;;;;;;1.01;97.00;101620.13;5413035;26;20273;-65
2024/04/21 04:49:57;;;;;;;2.00;0.50;;;;;;;1.06;97.64;101625.66;5445721;26;20453;-65
2024/04/21 04:52:23;;;;;;;2.60;1.03;;;;;;;1.12;97.27;101635.50;5445669;26;20739;-65
2024/04/21 04:54:51;;;;;;;2.00;0.50;;;;;;;1.25;97.15;101634.63;5445484;26;20450;-65
2024/04/21 04:57:17;;;;;;;2.00;0.50;;;;;;;1.31;96.29;101630.28;5425335;26;20275;-66
2024/04/21 04:59:45;;;;;;;2.07;0.60;;;;;;;1.46;95.41;101639.63;5418300;26;20978;-65
2024/04/21 05:02:11;;;;;;;2.53;1.07;;;;;;;1.58;94.81;101641.59;5409536;26;20717;-65
2024/04/21 05:04:39;;;;;;;1.93;0.30;;;;;;;1.69;94.15;101647.09;5409613;26;20504;-65
2024/04/21 05:07:07;;;;;;;2.00;0.30;;;;;;;1.77;93.29;101649.50;5409588;26;20602;-64
2024/04/21 05:09:35;;;;;;;1.90;0.30;;;;;;;1.87;93.04;101649.03;5424343;26;20459;-64
2024/04/21 05:12:01;;;;;;;2.00;0.40;;;;;;;1.94;92.83;101647.09;5445436;26;20973;-64
2024/04/21 05:14:30;;;;;;;2.10;0.60;;;;;;;2.08;92.10;101658.53;5413576;26;20511;-64
2024/04/21 05:16:55;;;;;;;2.00;0.30;;;;;;;2.17;91.26;101662.56;5409478;26;20261;-64
2024/04/21 05:19:23;;;;;;;2.00;0.30;;;;;;;2.25;90.87;101664.94;5416031;26;20813;-65
2024/04/21 05:21:49;;;;;;;2.10;0.50;;;;;;;2.37;90.08;101669.56;5445150;26;20220;-66
2024/04/21 05:24:20;;;;;;;2.27;0.40;;;;;;;2.39;88.86;101673.69;5445128;26;20512;-66
2024/04/21 05:26:46;;;;;;;2.00;0.40;;;;;;;2.48;88.20;101669.69;5445143;26;20738;-66
2024/04/21 05:29:14;;;;;;;2.03;0.50;;;;;;;2.56;88.07;101678.44;5445013;26;20454;-66
2024/04/21 05:31:39;;;;;;;3.60;1.67;;;;;;;2.62;87.36;101678.41;5431119;26;20237;-66
2024/04/21 05:34:08;;;;;;;2.50;0.40;;;;;;;2.72;86.79;101677.88;5445026;26;20465;-66
2024/04/21 05:36:33;;;;;;;4.10;0.97;;;;;;;2.74;85.93;101689.16;5427477;26;20233;-66
2024/04/21 05:39:02;;;;;;;2.10;0.60;;;;;;;2.78;84.66;101685.81;5409201;26;20511;-66
2024/04/21 05:41:30;;;;;;;2.37;0.80;;;;;;;2.80;81.73;101692.84;5409136;26;20218;-66
2024/04/21 05:43:58;;;;;;;2.00;0.30;;;;;;;2.84;81.46;101694.03;5408958;26;20998;-66
2024/04/21 05:46:25;;;;;;;2.00;0.30;;;;;;;2.93;81.65;101692.69;5410126;26;20589;-66
2024/04/21 05:48:53;;;;;;;2.20;0.67;;;;;;;3.06;80.81;101699.75;5433453;26;20514;-66
2024/04/21 05:51:19;;;;;;;2.10;0.40;;;;;;;3.16;80.43;101703.53;5408036;26;20539;-66
2024/04/21 05:53:47;;;;;;;2.50;0.90;;;;;;;3.24;78.84;101705.91;5394412;26;20455;-66
2024/04/21 05:56:15;;;;;;;2.10;0.43;;;;;;;3.38;78.25;101708.44;5409122;26;20330;-66
2024/04/21 05:58:46;;;;;;;2.37;1.00;;;;;;;3.48;77.82;101711.38;5408484;26;20466;-66
2024/04/21 06:01:11;;;;;;;2.10;0.47;;;;;;;3.52;74.80;101718.72;5402947;26;20535;-66
2024/04/21 06:03:40;;;;;;;2.00;0.30;;;;;;;3.62;75.04;101710.16;5395428;26;20471;-66
2024/04/21 06:06:06;;;;;;;2.93;1.27;;;;;;;3.68;74.05;101713.81;5385256;26;20277;-66
2024/04/21 06:08:34;;;;;;;2.00;0.30;;;;;;;3.68;73.32;101717.31;5373414;26;20513;-66
2024/04/21 06:11:00;;;;;;;9.10;1.30;;;;;;;3.64;71.86;101721.47;5373385;26;20510;-66
2024/04/21 06:13:28;;;;;;;2.50;1.07;;;;;;;3.77;72.08;101721.31;5400795;26;20844;-66
2024/04/21 06:15:57;;;;;;;3.17;1.03;;;;;;;3.92;73.24;101725.41;5408384;26;20717;-66
2024/04/21 06:18:25;;;;;;;2.00;0.30;;;;;;;4.12;73.58;101734.00;5408489;26;20956;-66
2024/04/21 06:20:51;;;;;;;2.23;0.73;;;;;;;4.24;71.73;101732.13;5397992;26;20513;-66
2024/04/21 06:23:19;;;;;;;2.30;0.70;;;;;;;4.41;70.44;101734.16;5391141;26;20478;-66
2024/04/21 06:25:44;;;;;;;2.10;0.50;;;;;;;4.48;71.01;101732.19;5382032;26;20589;-66
2024/04/21 06:28:13;;;;;;;2.50;0.93;;;;;;;4.52;70.63;101739.53;5390596;26;20455;-66
2024/04/21 06:30:40;;;;;;;2.37;1.00;;;;;;;4.54;69.81;101733.94;5408170;26;20324;-68
2024/04/21 06:33:11;;;;;;;2.10;0.47;;;;;;;4.59;69.22;101736.72;5408163;26;20539;-66
2024/04/21 06:35:37;;;;;;;2.00;0.30;;;;;;;4.69;68.80;101742.34;5394881;26;20533;-67
2024/04/21 06:38:06;;;;;;;2.10;0.50;;;;;;;4.72;68.32;101744.56;5373095;26;20449;-66
2024/04/21 06:40:32;;;;;;;2.00;0.40;;;;;;;4.78;67.64;101749.00;5386271;26;21024;-67
2024/04/21 06:43:00;;;;;;;2.80;0.80;;;;;;;4.90;68.63;101751.66;5405053;26;20519;-67
2024/04/21 06:45:26;;;;;;;2.07;0.47;;;;;;;4.95;67.69;101749.09;5406405;26;20756;-67
2024/04/21 06:47:54;;;;;;;2.30;0.80;;;;;;;5.07;67.68;101757.16;5406899;26;20471;-68
2024/04/21 06:50:23;;;;;;;2.07;0.40;;;;;;;5.16;67.89;101755.75;5407367;26;20471;-68
2024/04/21 06:52:51;;;;;;;2.07;0.40;;;;;;;5.22;65.46;101760.19;5407077;26;20531;-68
2024/04/21 06:55:16;;;;;;;2.10;0.40;;;;;;;5.28;65.79;101761.91;5406031;26;20511;-68
2024/04/21 06:57:46;;;;;;;2.87;0.87;;;;;;;5.28;63.04;101759.22;5406906;26;20471;-67
2024/04/21 07:00:15;;;;;;;2.30;0.67;;;;;;;5.34;63.45;101768.19;5407005;26;20237;-67
2024/04/21 07:02:41;;;;;;;2.07;0.50;;;;;;;5.37;63.16;101775.00;5417791;26;20510;-69
2024/04/21 07:05:09;;;;;;;3.77;1.87;;;;;;;5.43;62.72;101763.28;5450482;26;20449;-69
2024/04/21 07:07:37;;;;;;;2.77;0.77;;;;;;;5.46;62.48;101760.94;5413137;26;20233;-67
2024/04/21 07:10:06;;;;;;;2.20;0.70;;;;;;;5.54;61.96;101767.81;5408276;26;20463;-68
2024/04/21 07:12:32;;;;;;;2.20;0.67;;;;;;;5.57;61.42;101772.69;5410639;26;20479;-69
2024/04/21 07:15:00;;;;;;;2.13;0.50;;;;;;;5.58;59.62;101768.97;5407901;26;20573;-72
2024/04/21 07:17:26;;;;;;;2.60;1.00;;;;;;;5.64;59.99;101770.69;5406464;26;20645;-71
2024/04/21 07:19:54;;;;;;;2.03;0.40;;;;;;;5.67;58.92;101769.41;5407960;26;20467;-72
2024/04/21 07:22:20;;;;;;;3.23;1.23;;;;;;;5.77;59.26;101783.06;5407598;26;20574;-71
2024/04/21 07:24:51;;;;;;;2.83;0.73;;;;;;;5.73;58.07;101777.34;5407485;26;20451;-71
2024/04/21 07:27:16;;;;;;;2.80;1.00;;;;;;;5.80;57.71;101777.22;5406303;26;20230;-72
2024/04/21 07:29:45;;;;;;;2.10;0.53;;;;;;;5.86;57.99;101778.13;5407436;26;20459;-67
2024/04/21 07:32:10;;;;;;;2.10;0.50;;;;;;;5.90;56.63;101779.28;5407374;26;20763;-68
2024/04/21 07:34:38;;;;;;;2.60;0.80;;;;;;;5.98;56.14;101777.03;5407404;26;20463;-68
2024/04/21 07:37:04;;;;;;;2.43;0.60;;;;;;;6.02;55.74;101785.41;5407449;26;20221;-68
2024/04/21 07:39:32;;;;;;;2.30;0.77;;;;;;;6.05;56.42;101783.06;5405108;26;20880;-68
2024/04/21 07:42:01;;;;;;;2.20;0.50;;;;;;;6.12;56.02;101785.63;5407664;26;20233;-68
2024/04/21 07:44:29;;;;;;;4.43;0.80;;;;;;;6.20;55.91;101793.31;5407095;26;20524;-68
2024/04/21 07:46:55;;;;;;;2.17;0.50;;;;;;;6.25;55.81;101788.00;5407346;26;20459;-68
2024/04/21 07:49:20;;;;;;;2.00;0.40;;;;;;;6.31;54.45;101794.28;5389101;26;20528;-68
2024/04/21 07:51:48;;;;;;;2.20;0.57;;;;;;;6.43;54.05;101794.25;5401563;26;20261;-67
2024/04/21 07:54:14;;;;;;;5.70;1.37;;;;;;;6.50;54.08;101789.50;5407217;26;20284;-67
2024/04/21 07:56:42;;;;;;;2.70;0.73;;;;;;;6.56;53.77;101797.44;5390290;26;20465;-68
2024/04/21 07:59:11;;;;;;;2.10;0.50;;;;;;;6.61;53.08;101804.78;5400031;26;20730;-67
2024/04/21 08:01:39;;;;;;;2.73;0.67;;;;;;;6.66;52.77;101804.84;5406803;26;20459;-67
2024/04/21 08:04:04;;;;;;;2.67;0.60;;;;;;;6.73;52.81;101797.44;5406772;26;20468;-67
2024/04/21 08:06:33;;;;;;;2.20;0.57;;;;;;;6.80;51.46;101792.69;5404300;26;20515;-67
2024/04/21 08:08:58;;;;;;;3.07;1.80;;;;;;;6.89;53.76;101794.97;5406860;26;20272;-67
2024/04/21 08:11:27;;;;;;;2.20;0.60;;;;;;;7.00;52.36;101796.75;5410321;26;20978;-68
2024/04/21 08:13:53;;;;;;;3.37;0.80;;;;;;;7.04;51.52;101804.09;5410339;26;20664;-68
2024/04/21 08:16:24;;;;;;;2.10;0.50;;;;;;;7.11;51.18;101798.53;5410241;26;20455;-68
2024/04/21 08:18:49;;;;;;;3.90;0.90;;;;;;;7.14;50.73;101806.13;5407767;26;20884;-67
2024/04/21 08:21:18;;;;;;;2.50;0.70;;;;;;;7.18;50.26;101809.97;5409488;26;20467;-68
2024/04/21 08:23:43;;;;;;;2.60;0.70;;;;;;;7.19;48.70;101811.59;5409989;26;20233;-67
2024/04/21 08:26:12;;;;;;;2.73;0.70;;;;;;;7.21;50.23;101803.25;5410017;26;20828;-67
2024/04/21 08:28:37;;;;;;;2.10;0.53;;;;;;;7.25;51.03;101802.50;5406669;26;20331;-67
2024/04/21 08:31:06;;;;;;;2.20;0.63;;;;;;;7.33;50.58;101810.16;5374730;26;20468;-67
2024/04/21 08:33:35;;;;;;;2.47;0.53;;;;;;;7.43;50.36;101798.69;5408718;26;20249;-67
2024/04/21 08:36:04;;;;;;;2.00;0.40;;;;;;;7.55;49.27;101799.38;5409999;26;20550;-67
2024/04/21 08:38:29;;;;;;;2.10;0.40;;;;;;;7.58;48.61;101806.19;5409626;26;20864;-68
2024/04/21 08:40:58;;;;;;;2.00;0.50;;;;;;;7.65;48.48;101809.47;5407340;26;20459;-67
2024/04/21 08:43:25;;;;;;;3.20;0.60;;;;;;;7.74;48.91;101801.75;5409702;26;20710;-67
2024/04/21 08:45:55;;;;;;;7.00;0.70;;;;;;;7.72;47.67;101798.53;5425156;20;24196;-69
2024/04/21 08:48:21;;;;;;;2.70;0.57;;;;;;;7.76;49.01;101805.84;5409805;26;20459;-69
2024/04/21 08:50:52;;;;;;;2.20;0.50;;;;;;;7.82;50.57;101804.03;5409787;26;20463;-68
2024/04/21 08:53:18;;;;;;;2.00;0.40;;;;;;;7.92;51.43;101798.72;5392392;26;20472;-68
2024/04/21 08:55:49;;;;;;;2.20;0.40;;;;;;;8.00;50.21;101810.97;5374896;26;20520;-69
2024/04/21 08:58:15;;;;;;;2.30;0.63;;;;;;;8.02;48.60;101809.66;5374649;26;20269;-68
2024/04/21 09:00:44;;;;;;;2.20;0.70;;;;;;;8.07;48.40;101806.19;5372579;26;20512;-68
2024/04/21 09:03:10;;;;;;;2.40;0.80;;;;;;;8.09;49.03;101812.13;5340292;26;20529;-68
2024/04/21 09:05:38;;;;;;;2.40;0.70;;;;;;;8.14;47.86;101820.28;5371948;26;20464;-68
2024/04/21 09:08:07;;;;;;;2.40;0.77;;;;;;;8.21;48.23;101810.13;5374307;26;20339;-71
2024/04/21 09:10:35;;;;;;;2.30;0.70;;;;;;;8.23;49.22;101818.75;5374035;26;20464;-68
2024/04/21 09:13:01;;;;;;;2.30;0.70;;;;;;;8.32;49.09;101813.72;5349932;26;20478;-68
2024/04/21 09:15:30;;;;;;;2.50;0.80;;;;;;;8.37;49.54;101803.03;5348035;26;20529;-68
2024/04/21 09:17:56;;;;;;;2.10;0.50;;;;;;;8.49;50.19;101797.44;5374250;26;20468;-68
2024/04/21 09:20:24;;;;;;;3.87;0.63;;;;;;;8.61;48.11;101814.28;5374232;26;20566;-68
2024/04/21 09:22:50;;;;;;;2.10;0.53;;;;;;;8.73;48.34;101809.53;5362086;26;20236;-68
2024/04/21 09:25:21;;;;;;;2.50;0.60;;;;;;;8.83;47.96;101809.59;5355734;26;20529;-68
2024/04/21 09:27:47;;;;;;;2.23;0.53;;;;;;;8.87;47.65;101806.38;5373791;26;20781;-68
2024/04/21 09:30:15;;;;;;;3.00;0.77;;;;;;;8.92;48.34;101811.81;5373813;26;20461;-68
2024/04/21 09:32:41;;;;;;;2.67;0.93;;;;;;;8.98;47.81;101808.06;5373488;26;20532;-68
2024/04/21 09:35:09;;;;;;;2.50;0.53;;;;;;;9.04;47.78;101810.56;5373732;26;20528;-68
2024/04/21 09:37:39;;;;;;;2.50;0.70;;;;;;;8.94;47.88;101801.56;5373931;26;20219;-68
2024/04/21 09:40:10;;;;;;;2.40;0.60;;;;;;;8.84;46.96;101807.72;5373691;26;21056;-68
2024/04/21 09:42:40;;;;;;;2.30;0.60;;;;;;;8.80;47.52;101809.31;5373854;26;20473;-68
2024/04/21 09:45:10;;;;;;;2.20;0.60;;;;;;;8.83;47.04;101798.78;5361092;26;21007;-69
2024/04/21 09:47:37;;;;;;;3.20;0.73;;;;;;;8.94;47.34;101799.69;5373509;26;20524;-68
2024/04/21 09:50:06;;;;;;;2.20;0.57;;;;;;;9.08;47.45;101805.47;5371754;26;20464;-68
2024/04/21 09:52:32;;;;;;;3.70;0.80;;;;;;;9.20;46.32;101799.84;5369122;26;20525;-69
2024/04/21 09:55:01;;;;;;;2.30;0.53;;;;;;;9.26;45.97;101796.09;5374065;26;20465;-69
2024/04/21 09:57:31;;;;;;;2.10;0.43;;;;;;;9.41;46.70;101792.66;5373515;26;20548;-69
2024/04/21 10:00:05;;;;;;;2.10;0.47;;;;;;;9.54;46.84;101792.19;5373685;26;20465;-68
2024/04/21 10:02:35;;;;;;;2.40;0.60;;;;;;;9.70;46.82;101788.47;5377957;26;20469;-69
2024/04/21 10:05:07;;;;;;;2.67;0.80;;;;;;;9.75;47.42;101803.91;5389062;26;20536;-69
2024/04/21 10:07:36;;;;;;;2.00;0.40;;;;;;;9.43;43.87;101809.41;5338725;26;20462;-68
2024/04/21 10:10:10;;;;;;;2.20;0.60;;;;;;;9.39;48.74;101802.94;5371098;26;20818;-68
2024/04/21 10:12:37;;;;;;;2.20;0.80;;;;;;;9.55;45.92;101807.31;5373802;26;20576;-68
2024/04/21 10:15:10;;;;;;;2.00;0.40;;;;;;;9.70;46.22;101807.41;5373796;26;20456;-69
2024/04/21 10:17:36;;;;;;;4.13;0.50;;;;;;;9.91;45.93;101802.03;5373475;26;20472;-68
2024/04/21 10:20:05;;;;;;;2.60;0.70;;;;;;;10.21;46.55;101804.81;5374484;26;20521;-69
2024/04/21 10:22:31;;;;;;;2.90;1.00;;;;;;;10.37;45.84;101802.19;5408866;26;20230;-69
2024/04/21 10:25:00;;;;;;;2.40;0.60;;;;;;;10.50;44.38;101791.63;5381914;26;20472;-68
2024/04/21 10:27:25;;;;;;;4.00;1.13;;;;;;;10.68;44.72;101790.25;5356620;26;20556;-68
2024/04/21 10:29:54;;;;;;;3.70;1.00;;;;;;;10.78;44.62;101795.66;5373503;26;20579;-68
2024/04/21 10:32:26;;;;;;;2.90;0.80;;;;;;;10.95;43.87;101794.56;5372241;26;20456;-68
2024/04/21 10:34:57;;;;;;;2.80;0.93;;;;;;;11.03;43.95;101796.72;5372451;26;20517;-68
2024/04/21 10:37:24;;;;;;;3.13;0.87;;;;;;;11.21;44.07;101792.63;5372988;26;20812;-68
2024/04/21 10:39:53;;;;;;;4.30;1.33;;;;;;;11.25;44.29;101799.13;5371815;26;20453;-68
2024/04/21 10:42:18;;;;;;;2.60;0.70;;;;;;;10.95;43.16;101802.72;5372561;26;20527;-68
2024/04/21 10:44:47;;;;;;;2.50;0.80;;;;;;;10.92;43.28;101801.34;5372870;26;20524;-68
2024/04/21 10:47:12;;;;;;;3.03;1.00;;;;;;;10.71;43.91;101797.03;5373033;26;20273;-68
2024/04/21 10:49:43;;;;;;;2.20;0.60;;;;;;;10.61;44.16;101800.56;5372181;26;20465;-68
2024/04/21 10:52:09;;;;;;;2.50;0.60;;;;;;;10.45;44.90;101796.22;5363614;26;20242;-69
2024/04/21 10:54:38;;;;;;;9.80;1.30;;;;;;;10.28;44.59;101797.28;5372847;26;20461;-68
2024/04/21 10:57:04;;;;;;;2.60;0.90;;;;;;;10.08;44.97;101797.22;5372417;26;20273;-68
2024/04/21 10:59:33;;;;;;;3.03;0.70;;;;;;;9.91;45.89;101796.63;5375642;26;20536;-68
2024/04/21 11:01:59;;;;;;;3.93;0.67;;;;;;;9.73;44.66;101798.72;5422344;26;20578;-68
2024/04/21 11:04:28;;;;;;;2.40;0.67;;;;;;;9.57;45.23;101797.06;5385490;26;21012;-68
2024/04/21 11:06:56;;;;;;;3.67;1.30;;;;;;;9.58;43.99;101801.41;5371424;26;20584;-68
2024/04/21 11:09:24;;;;;;;5.00;1.20;;;;;;;9.66;44.68;101794.66;5369053;26;20521;-69
2024/04/21 11:11:50;;;;;;;2.43;0.57;;;;;;;9.65;44.34;101801.97;5360916;26;20487;-68
2024/04/21 11:14:19;;;;;;;2.50;0.70;;;;;;;9.61;43.08;101787.34;5379344;26;20532;-68
2024/04/21 11:16:50;;;;;;;2.30;0.67;;;;;;;9.79;45.35;101789.56;5377056;26;20332;-69
2024/04/21 11:19:19;;;;;;;2.10;0.60;;;;;;;9.67;43.83;101788.97;5380341;26;20467;-68
2024/04/21 11:21:45;;;;;;;2.73;1.10;;;;;;;9.75;44.23;101793.88;5407718;26;20553;-68
2024/04/21 11:24:15;;;;;;;2.30;0.60;;;;;;;9.84;45.32;101781.47;5383613;26;20476;-68
2024/04/21 11:26:41;;;;;;;2.80;0.70;;;;;;;9.81;45.43;101786.59;5390946;26;20469;-68
2024/04/21 11:29:10;;;;;;;2.17;0.60;;;;;;;9.76;44.59;101787.38;5371653;26;20509;-68
2024/04/21 11:31:35;;;;;;;2.93;0.63;;;;;;;9.88;46.52;101787.16;5372185;26;20469;-68
2024/04/21 11:34:04;;;;;;;2.60;0.87;;;;;;;9.96;46.24;101785.81;5372196;26;20524;-69
2024/04/21 11:36:31;;;;;;;2.33;0.60;;;;;;;10.13;45.96;101789.09;5372235;26;20795;-69